Disclaimer

Please do not use the information listed here in-flight or in-navigation, as they are not provided to us by the airports but are provided by volunteers, so they might be outdated.

Search


Regions


Airport information page

No radio frequency information is available.

Airport informations:
Latitude: 31° 23' 25.90" S
Longitude: 054° 06' 44.08" W
Elevation: 600 feet - 183 meters
Operating hours: Remarks
Operating agency: Civil government, landing fees and diplomatic clearance may be required
Timezone: UTC-3(-2DT)
Fuel: N/A

Runway information:
06/24 - 4921 x 98 feet< - >1500 x 30 meters
14/32 - 3840 x 178 feet< - >1170 x 54 meters

Recent METARs:
SBBG 201900Z 09004KT CAVOK 29/04 Q1015
SBBG 201900Z 09004KT CAVOK 29/04 Q1015
SBBG 201900Z 09004KT CAVOK 29/04 Q1015

Airport on the map: